sensor_id;sensor_type;location;lat;lon;timestamp;P1;durP1;ratioP1;P2;durP2;ratioP2
53391;SDS011;41667;51.922;8.850;2023-08-30T00:01:03;5.47;;;4.93;;
53391;SDS011;41667;51.922;8.850;2023-08-30T00:03:29;9.52;;;5.10;;
53391;SDS011;41667;51.922;8.850;2023-08-30T00:05:54;6.80;;;5.27;;
53391;SDS011;41667;51.922;8.850;2023-08-30T00:08:20;6.47;;;4.90;;
53391;SDS011;41667;51.922;8.850;2023-08-30T00:10:46;7.38;;;5.07;;
53391;SDS011;41667;51.922;8.850;2023-08-30T00:13:11;7.05;;;4.68;;
53391;SDS011;41667;51.922;8.850;2023-08-30T00:15:36;7.43;;;4.75;;
53391;SDS011;41667;51.922;8.850;2023-08-30T00:18:01;6.35;;;4.20;;
53391;SDS011;41667;51.922;8.850;2023-08-30T00:20:26;5.10;;;4.28;;
53391;SDS011;41667;51.922;8.850;2023-08-30T00:22:52;9.07;;;5.90;;
53391;SDS011;41667;51.922;8.850;2023-08-30T00:25:17;5.32;;;4.65;;
53391;SDS011;41667;51.922;8.850;2023-08-30T00:27:42;4.47;;;4.15;;
53391;SDS011;41667;51.922;8.850;2023-08-30T00:30:08;4.50;;;3.80;;
53391;SDS011;41667;51.922;8.850;2023-08-30T00:32:34;5.88;;;3.65;;
53391;SDS011;41667;51.922;8.850;2023-08-30T00:34:59;5.37;;;4.13;;
53391;SDS011;41667;51.922;8.850;2023-08-30T00:37:24;4.75;;;3.67;;
53391;SDS011;41667;51.922;8.850;2023-08-30T00:39:49;7.63;;;4.78;;
53391;SDS011;41667;51.922;8.850;2023-08-30T00:42:14;5.03;;;3.87;;
53391;SDS011;41667;51.922;8.850;2023-08-30T00:44:39;4.82;;;3.95;;
53391;SDS011;41667;51.922;8.850;2023-08-30T00:47:05;6.35;;;4.13;;
53391;SDS011;41667;51.922;8.850;2023-08-30T00:49:31;5.65;;;4.28;;
53391;SDS011;41667;51.922;8.850;2023-08-30T00:51:57;5.43;;;4.15;;
53391;SDS011;41667;51.922;8.850;2023-08-30T00:54:22;5.03;;;4.07;;
53391;SDS011;41667;51.922;8.850;2023-08-30T00:56:47;10.60;;;4.60;;
53391;SDS011;41667;51.922;8.850;2023-08-30T00:59:13;5.20;;;4.13;;
53391;SDS011;41667;51.922;8.850;2023-08-30T01:01:38;5.47;;;3.90;;
53391;SDS011;41667;51.922;8.850;2023-08-30T01:04:05;5.90;;;3.92;;
53391;SDS011;41667;51.922;8.850;2023-08-30T01:06:30;5.10;;;4.50;;
53391;SDS011;41667;51.922;8.850;2023-08-30T01:08:55;7.47;;;4.90;;
53391;SDS011;41667;51.922;8.850;2023-08-30T01:11:29;5.63;;;4.45;;
53391;SDS011;41667;51.922;8.850;2023-08-30T01:13:57;5.75;;;4.72;;
53391;SDS011;41667;51.922;8.850;2023-08-30T01:16:23;7.25;;;4.85;;
53391;SDS011;41667;51.922;8.850;2023-08-30T01:18:49;6.78;;;5.35;;
53391;SDS011;41667;51.922;8.850;2023-08-30T01:21:21;8.48;;;4.20;;
53391;SDS011;41667;51.922;8.850;2023-08-30T01:23:54;6.50;;;4.25;;
53391;SDS011;41667;51.922;8.850;2023-08-30T01:28:49;8.30;;;4.55;;
53391;SDS011;41667;51.922;8.850;2023-08-30T01:31:16;8.73;;;4.55;;
53391;SDS011;41667;51.922;8.850;2023-08-30T01:33:41;4.68;;;3.67;;
53391;SDS011;41667;51.922;8.850;2023-08-30T01:36:07;5.60;;;4.43;;
53391;SDS011;41667;51.922;8.850;2023-08-30T01:38:33;5.32;;;4.32;;
53391;SDS011;41667;51.922;8.850;2023-08-30T01:40:59;4.90;;;4.30;;
53391;SDS011;41667;51.922;8.850;2023-08-30T01:43:25;5.35;;;4.32;;
53391;SDS011;41667;51.922;8.850;2023-08-30T01:45:51;5.50;;;4.18;;
53391;SDS011;41667;51.922;8.850;2023-08-30T01:48:16;6.75;;;4.35;;
53391;SDS011;41667;51.922;8.850;2023-08-30T01:50:42;7.07;;;4.95;;
53391;SDS011;41667;51.922;8.850;2023-08-30T01:53:08;5.28;;;4.72;;
53391;SDS011;41667;51.922;8.850;2023-08-30T01:55:33;5.25;;;4.50;;
53391;SDS011;41667;51.922;8.850;2023-08-30T01:57:59;6.88;;;5.22;;
53391;SDS011;41667;51.922;8.850;2023-08-30T02:00:24;10.33;;;5.07;;
53391;SDS011;41667;51.922;8.850;2023-08-30T02:02:49;8.47;;;5.13;;
53391;SDS011;41667;51.922;8.850;2023-08-30T02:05:14;10.77;;;5.20;;
53391;SDS011;41667;51.922;8.850;2023-08-30T02:07:41;7.00;;;5.80;;
53391;SDS011;41667;51.922;8.850;2023-08-30T02:10:12;7.38;;;5.05;;
53391;SDS011;41667;51.922;8.850;2023-08-30T02:12:44;8.10;;;5.53;;
53391;SDS011;41667;51.922;8.850;2023-08-30T02:15:11;6.03;;;5.07;;
53391;SDS011;41667;51.922;8.850;2023-08-30T02:17:37;7.22;;;5.30;;
53391;SDS011;41667;51.922;8.850;2023-08-30T02:20:02;6.28;;;5.20;;
53391;SDS011;41667;51.922;8.850;2023-08-30T02:22:28;6.53;;;5.20;;
53391;SDS011;41667;51.922;8.850;2023-08-30T02:24:55;6.78;;;4.65;;
53391;SDS011;41667;51.922;8.850;2023-08-30T02:27:20;7.65;;;5.20;;
53391;SDS011;41667;51.922;8.850;2023-08-30T02:29:45;5.73;;;4.63;;
53391;SDS011;41667;51.922;8.850;2023-08-30T02:32:11;5.70;;;4.57;;
53391;SDS011;41667;51.922;8.850;2023-08-30T02:34:36;7.30;;;5.00;;
53391;SDS011;41667;51.922;8.850;2023-08-30T02:37:02;6.47;;;5.10;;
53391;SDS011;41667;51.922;8.850;2023-08-30T02:39:27;7.80;;;5.20;;
53391;SDS011;41667;51.922;8.850;2023-08-30T02:41:52;7.78;;;4.97;;
53391;SDS011;41667;51.922;8.850;2023-08-30T02:44:17;7.22;;;4.80;;
53391;SDS011;41667;51.922;8.850;2023-08-30T02:46:42;5.43;;;4.88;;
53391;SDS011;41667;51.922;8.850;2023-08-30T02:49:08;7.93;;;5.22;;
53391;SDS011;41667;51.922;8.850;2023-08-30T02:51:34;8.80;;;5.18;;
53391;SDS011;41667;51.922;8.850;2023-08-30T02:53:59;6.77;;;4.43;;
53391;SDS011;41667;51.922;8.850;2023-08-30T02:56:24;6.75;;;4.88;;
53391;SDS011;41667;51.922;8.850;2023-08-30T02:58:50;5.57;;;4.80;;
53391;SDS011;41667;51.922;8.850;2023-08-30T03:01:15;5.40;;;4.37;;
53391;SDS011;41667;51.922;8.850;2023-08-30T03:03:40;6.50;;;4.70;;
53391;SDS011;41667;51.922;8.850;2023-08-30T03:06:05;5.13;;;4.33;;
53391;SDS011;41667;51.922;8.850;2023-08-30T03:08:31;5.55;;;4.50;;
53391;SDS011;41667;51.922;8.850;2023-08-30T03:11:06;6.28;;;4.53;;
53391;SDS011;41667;51.922;8.850;2023-08-30T03:13:32;6.68;;;5.07;;
53391;SDS011;41667;51.922;8.850;2023-08-30T03:15:57;8.13;;;5.50;;
53391;SDS011;41667;51.922;8.850;2023-08-30T03:18:22;5.60;;;4.72;;
53391;SDS011;41667;51.922;8.850;2023-08-30T03:20:47;10.15;;;4.65;;
53391;SDS011;41667;51.922;8.850;2023-08-30T03:23:12;8.77;;;5.53;;
53391;SDS011;41667;51.922;8.850;2023-08-30T03:25:37;5.75;;;4.72;;
53391;SDS011;41667;51.922;8.850;2023-08-30T03:28:02;5.90;;;4.55;;
53391;SDS011;41667;51.922;8.850;2023-08-30T03:30:29;6.80;;;4.47;;
53391;SDS011;41667;51.922;8.850;2023-08-30T03:32:54;5.22;;;4.60;;
53391;SDS011;41667;51.922;8.850;2023-08-30T03:35:19;6.37;;;5.00;;
53391;SDS011;41667;51.922;8.850;2023-08-30T03:37:46;6.07;;;4.60;;
53391;SDS011;41667;51.922;8.850;2023-08-30T03:40:11;7.43;;;5.65;;
53391;SDS011;41667;51.922;8.850;2023-08-30T03:42:37;5.57;;;4.85;;
53391;SDS011;41667;51.922;8.850;2023-08-30T03:45:02;5.67;;;4.70;;
53391;SDS011;41667;51.922;8.850;2023-08-30T03:47:28;6.20;;;5.07;;
53391;SDS011;41667;51.922;8.850;2023-08-30T03:49:53;7.28;;;4.80;;
53391;SDS011;41667;51.922;8.850;2023-08-30T03:52:18;9.60;;;5.80;;
53391;SDS011;41667;51.922;8.850;2023-08-30T03:54:43;8.77;;;4.95;;
53391;SDS011;41667;51.922;8.850;2023-08-30T03:57:08;8.43;;;5.70;;
53391;SDS011;41667;51.922;8.850;2023-08-30T03:59:33;12.03;;;7.27;;
53391;SDS011;41667;51.922;8.850;2023-08-30T04:01:58;10.00;;;6.67;;
53391;SDS011;41667;51.922;8.850;2023-08-30T04:04:24;9.65;;;7.05;;
53391;SDS011;41667;51.922;8.850;2023-08-30T04:06:49;11.07;;;7.28;;
53391;SDS011;41667;51.922;8.850;2023-08-30T04:09:14;9.93;;;6.47;;
53391;SDS011;41667;51.922;8.850;2023-08-30T04:11:39;8.90;;;6.60;;
53391;SDS011;41667;51.922;8.850;2023-08-30T04:14:04;10.60;;;6.87;;
53391;SDS011;41667;51.922;8.850;2023-08-30T04:16:29;13.18;;;7.00;;
53391;SDS011;41667;51.922;8.850;2023-08-30T04:18:55;13.48;;;7.63;;
53391;SDS011;41667;51.922;8.850;2023-08-30T04:21:20;11.60;;;7.43;;
53391;SDS011;41667;51.922;8.850;2023-08-30T04:23:45;11.32;;;7.35;;
53391;SDS011;41667;51.922;8.850;2023-08-30T04:26:10;9.23;;;6.15;;
53391;SDS011;41667;51.922;8.850;2023-08-30T04:28:35;6.75;;;5.10;;
53391;SDS011;41667;51.922;8.850;2023-08-30T04:31:00;9.55;;;6.78;;
53391;SDS011;41667;51.922;8.850;2023-08-30T04:33:26;13.10;;;7.00;;
53391;SDS011;41667;51.922;8.850;2023-08-30T04:35:54;13.33;;;8.10;;
53391;SDS011;41667;51.922;8.850;2023-08-30T04:38:20;11.18;;;7.95;;
53391;SDS011;41667;51.922;8.850;2023-08-30T04:40:45;10.85;;;8.15;;
53391;SDS011;41667;51.922;8.850;2023-08-30T04:43:10;15.73;;;9.43;;
53391;SDS011;41667;51.922;8.850;2023-08-30T04:45:35;14.43;;;8.90;;
53391;SDS011;41667;51.922;8.850;2023-08-30T04:48:01;9.32;;;7.68;;
53391;SDS011;41667;51.922;8.850;2023-08-30T04:50:26;14.47;;;9.30;;
53391;SDS011;41667;51.922;8.850;2023-08-30T04:52:51;12.30;;;8.63;;
53391;SDS011;41667;51.922;8.850;2023-08-30T04:55:17;11.57;;;8.60;;
53391;SDS011;41667;51.922;8.850;2023-08-30T04:57:42;15.05;;;9.35;;
53391;SDS011;41667;51.922;8.850;2023-08-30T05:00:10;14.50;;;10.57;;
53391;SDS011;41667;51.922;8.850;2023-08-30T05:02:35;19.02;;;10.18;;
53391;SDS011;41667;51.922;8.850;2023-08-30T05:05:00;18.83;;;11.60;;
53391;SDS011;41667;51.922;8.850;2023-08-30T05:07:26;12.95;;;9.75;;
53391;SDS011;41667;51.922;8.850;2023-08-30T05:09:51;15.53;;;10.20;;
53391;SDS011;41667;51.922;8.850;2023-08-30T05:12:16;15.27;;;9.93;;
53391;SDS011;41667;51.922;8.850;2023-08-30T05:14:41;19.90;;;9.85;;
53391;SDS011;41667;51.922;8.850;2023-08-30T05:17:06;14.60;;;9.38;;
53391;SDS011;41667;51.922;8.850;2023-08-30T05:19:32;14.27;;;8.43;;
53391;SDS011;41667;51.922;8.850;2023-08-30T05:21:57;13.73;;;9.07;;
53391;SDS011;41667;51.922;8.850;2023-08-30T05:24:22;13.27;;;8.73;;
53391;SDS011;41667;51.922;8.850;2023-08-30T05:26:47;12.70;;;8.27;;
53391;SDS011;41667;51.922;8.850;2023-08-30T05:29:14;11.63;;;8.38;;
53391;SDS011;41667;51.922;8.850;2023-08-30T05:31:39;14.43;;;8.88;;
53391;SDS011;41667;51.922;8.850;2023-08-30T05:34:04;10.00;;;7.43;;
53391;SDS011;41667;51.922;8.850;2023-08-30T05:36:29;15.63;;;8.57;;
53391;SDS011;41667;51.922;8.850;2023-08-30T05:38:54;13.43;;;8.37;;
53391;SDS011;41667;51.922;8.850;2023-08-30T05:41:20;11.27;;;8.30;;
53391;SDS011;41667;51.922;8.850;2023-08-30T05:43:45;12.70;;;8.17;;
53391;SDS011;41667;51.922;8.850;2023-08-30T05:46:10;11.82;;;8.77;;
53391;SDS011;41667;51.922;8.850;2023-08-30T05:48:39;13.57;;;8.13;;
53391;SDS011;41667;51.922;8.850;2023-08-30T05:51:04;12.30;;;8.40;;
53391;SDS011;41667;51.922;8.850;2023-08-30T05:53:29;13.88;;;8.32;;
53391;SDS011;41667;51.922;8.850;2023-08-30T05:55:55;9.95;;;7.90;;
53391;SDS011;41667;51.922;8.850;2023-08-30T05:58:20;11.45;;;8.48;;
53391;SDS011;41667;51.922;8.850;2023-08-30T06:00:46;14.48;;;8.63;;
53391;SDS011;41667;51.922;8.850;2023-08-30T06:03:11;15.10;;;9.45;;
53391;SDS011;41667;51.922;8.850;2023-08-30T06:05:36;13.32;;;8.65;;
53391;SDS011;41667;51.922;8.850;2023-08-30T06:08:01;10.65;;;7.72;;
53391;SDS011;41667;51.922;8.850;2023-08-30T06:10:27;14.32;;;9.52;;
53391;SDS011;41667;51.922;8.850;2023-08-30T06:12:52;12.07;;;9.65;;
53391;SDS011;41667;51.922;8.850;2023-08-30T06:15:17;12.20;;;7.75;;
53391;SDS011;41667;51.922;8.850;2023-08-30T06:17:43;13.13;;;8.80;;
53391;SDS011;41667;51.922;8.850;2023-08-30T06:20:08;17.65;;;11.18;;
53391;SDS011;41667;51.922;8.850;2023-08-30T06:22:34;13.05;;;9.05;;
53391;SDS011;41667;51.922;8.850;2023-08-30T06:24:59;13.47;;;9.63;;
53391;SDS011;41667;51.922;8.850;2023-08-30T06:27:24;15.10;;;10.30;;
53391;SDS011;41667;51.922;8.850;2023-08-30T06:29:49;17.10;;;11.17;;
53391;SDS011;41667;51.922;8.850;2023-08-30T06:32:15;28.27;;;11.95;;
53391;SDS011;41667;51.922;8.850;2023-08-30T06:34:40;17.70;;;11.07;;
53391;SDS011;41667;51.922;8.850;2023-08-30T06:37:05;16.67;;;10.80;;
53391;SDS011;41667;51.922;8.850;2023-08-30T06:39:34;18.58;;;11.48;;
53391;SDS011;41667;51.922;8.850;2023-08-30T06:42:02;18.23;;;10.38;;
53391;SDS011;41667;51.922;8.850;2023-08-30T06:44:27;15.05;;;10.38;;
53391;SDS011;41667;51.922;8.850;2023-08-30T06:46:54;17.55;;;11.18;;
53391;SDS011;41667;51.922;8.850;2023-08-30T06:49:19;18.20;;;10.75;;
53391;SDS011;41667;51.922;8.850;2023-08-30T06:51:44;16.13;;;10.80;;
53391;SDS011;41667;51.922;8.850;2023-08-30T06:54:10;17.00;;;10.85;;
53391;SDS011;41667;51.922;8.850;2023-08-30T06:56:35;18.90;;;11.17;;
53391;SDS011;41667;51.922;8.850;2023-08-30T06:59:00;17.60;;;11.40;;
53391;SDS011;41667;51.922;8.850;2023-08-30T07:01:25;20.02;;;11.10;;
53391;SDS011;41667;51.922;8.850;2023-08-30T07:03:50;14.37;;;10.50;;
53391;SDS011;41667;51.922;8.850;2023-08-30T07:06:15;16.75;;;10.48;;
53391;SDS011;41667;51.922;8.850;2023-08-30T07:08:40;16.73;;;11.45;;
53391;SDS011;41667;51.922;8.850;2023-08-30T07:11:06;18.10;;;11.17;;
53391;SDS011;41667;51.922;8.850;2023-08-30T07:13:31;23.67;;;11.07;;
53391;SDS011;41667;51.922;8.850;2023-08-30T07:15:56;17.00;;;11.05;;
53391;SDS011;41667;51.922;8.850;2023-08-30T07:18:21;19.20;;;12.03;;
53391;SDS011;41667;51.922;8.850;2023-08-30T07:20:46;19.87;;;13.47;;
53391;SDS011;41667;51.922;8.850;2023-08-30T07:23:11;22.07;;;13.67;;
53391;SDS011;41667;51.922;8.850;2023-08-30T07:25:37;21.97;;;12.40;;
53391;SDS011;41667;51.922;8.850;2023-08-30T07:28:03;22.90;;;13.65;;
53391;SDS011;41667;51.922;8.850;2023-08-30T07:30:28;20.25;;;13.18;;
53391;SDS011;41667;51.922;8.850;2023-08-30T07:32:54;18.25;;;11.48;;
53391;SDS011;41667;51.922;8.850;2023-08-30T07:35:19;17.93;;;11.97;;
53391;SDS011;41667;51.922;8.850;2023-08-30T07:37:44;18.10;;;12.87;;
53391;SDS011;41667;51.922;8.850;2023-08-30T07:40:10;25.37;;;12.07;;
53391;SDS011;41667;51.922;8.850;2023-08-30T07:42:35;17.52;;;11.07;;
53391;SDS011;41667;51.922;8.850;2023-08-30T07:45:00;19.30;;;11.77;;
53391;SDS011;41667;51.922;8.850;2023-08-30T07:47:25;18.00;;;12.37;;
53391;SDS011;41667;51.922;8.850;2023-08-30T07:49:51;22.70;;;12.67;;
53391;SDS011;41667;51.922;8.850;2023-08-30T07:52:16;21.38;;;11.60;;
53391;SDS011;41667;51.922;8.850;2023-08-30T07:54:41;20.50;;;13.00;;
53391;SDS011;41667;51.922;8.850;2023-08-30T07:57:06;17.83;;;11.38;;
53391;SDS011;41667;51.922;8.850;2023-08-30T07:59:35;20.75;;;11.82;;
53391;SDS011;41667;51.922;8.850;2023-08-30T08:02:01;17.30;;;11.77;;
53391;SDS011;41667;51.922;8.850;2023-08-30T08:04:26;21.73;;;11.57;;
53391;SDS011;41667;51.922;8.850;2023-08-30T08:06:51;21.13;;;11.55;;
53391;SDS011;41667;51.922;8.850;2023-08-30T08:09:16;15.95;;;10.57;;
53391;SDS011;41667;51.922;8.850;2023-08-30T08:11:42;16.60;;;9.45;;
53391;SDS011;41667;51.922;8.850;2023-08-30T08:14:09;17.63;;;10.50;;
53391;SDS011;41667;51.922;8.850;2023-08-30T08:16:34;20.52;;;9.15;;
53391;SDS011;41667;51.922;8.850;2023-08-30T08:18:59;15.25;;;9.50;;
53391;SDS011;41667;51.922;8.850;2023-08-30T08:21:26;16.20;;;9.77;;
53391;SDS011;41667;51.922;8.850;2023-08-30T08:23:51;15.23;;;9.18;;
53391;SDS011;41667;51.922;8.850;2023-08-30T08:26:16;15.25;;;9.95;;
53391;SDS011;41667;51.922;8.850;2023-08-30T08:28:41;13.32;;;9.35;;
53391;SDS011;41667;51.922;8.850;2023-08-30T08:31:07;15.63;;;9.90;;
53391;SDS011;41667;51.922;8.850;2023-08-30T08:33:33;21.48;;;10.10;;
53391;SDS011;41667;51.922;8.850;2023-08-30T08:35:58;15.30;;;10.45;;
53391;SDS011;41667;51.922;8.850;2023-08-30T08:38:23;13.20;;;8.73;;
53391;SDS011;41667;51.922;8.850;2023-08-30T08:40:49;13.43;;;9.47;;
53391;SDS011;41667;51.922;8.850;2023-08-30T08:43:15;15.13;;;9.75;;
53391;SDS011;41667;51.922;8.850;2023-08-30T08:45:42;13.00;;;8.90;;
53391;SDS011;41667;51.922;8.850;2023-08-30T08:48:09;15.68;;;9.75;;
53391;SDS011;41667;51.922;8.850;2023-08-30T08:50:34;14.03;;;9.70;;
53391;SDS011;41667;51.922;8.850;2023-08-30T08:52:59;11.93;;;8.10;;
53391;SDS011;41667;51.922;8.850;2023-08-30T08:55:26;12.40;;;7.13;;
53391;SDS011;41667;51.922;8.850;2023-08-30T08:57:52;12.10;;;8.10;;
53391;SDS011;41667;51.922;8.850;2023-08-30T09:00:18;13.68;;;9.40;;
53391;SDS011;41667;51.922;8.850;2023-08-30T09:02:43;13.30;;;7.37;;
53391;SDS011;41667;51.922;8.850;2023-08-30T09:05:09;12.70;;;7.53;;
53391;SDS011;41667;51.922;8.850;2023-08-30T09:07:35;10.60;;;6.80;;
53391;SDS011;41667;51.922;8.850;2023-08-30T09:10:01;9.38;;;6.32;;
53391;SDS011;41667;51.922;8.850;2023-08-30T09:12:26;11.80;;;5.57;;
53391;SDS011;41667;51.922;8.850;2023-08-30T09:14:54;9.90;;;6.33;;
53391;SDS011;41667;51.922;8.850;2023-08-30T09:17:20;11.43;;;5.82;;
53391;SDS011;41667;51.922;8.850;2023-08-30T09:19:45;9.32;;;5.75;;
53391;SDS011;41667;51.922;8.850;2023-08-30T09:22:10;8.52;;;6.03;;
53391;SDS011;41667;51.922;8.850;2023-08-30T09:24:39;8.83;;;5.30;;
53391;SDS011;41667;51.922;8.850;2023-08-30T09:27:04;9.10;;;5.38;;
53391;SDS011;41667;51.922;8.850;2023-08-30T09:29:30;6.95;;;4.53;;
53391;SDS011;41667;51.922;8.850;2023-08-30T09:31:55;5.53;;;4.60;;
53391;SDS011;41667;51.922;8.850;2023-08-30T09:34:23;6.03;;;4.25;;
53391;SDS011;41667;51.922;8.850;2023-08-30T09:36:50;7.20;;;4.55;;
53391;SDS011;41667;51.922;8.850;2023-08-30T09:39:16;6.55;;;4.25;;
53391;SDS011;41667;51.922;8.850;2023-08-30T09:41:41;9.35;;;5.20;;
53391;SDS011;41667;51.922;8.850;2023-08-30T09:44:10;6.47;;;4.95;;
53391;SDS011;41667;51.922;8.850;2023-08-30T09:46:42;7.25;;;4.53;;
53391;SDS011;41667;51.922;8.850;2023-08-30T09:49:08;6.65;;;4.30;;
53391;SDS011;41667;51.922;8.850;2023-08-30T09:51:34;5.50;;;4.03;;
53391;SDS011;41667;51.922;8.850;2023-08-30T09:54:00;7.30;;;4.18;;
53391;SDS011;41667;51.922;8.850;2023-08-30T09:56:26;6.20;;;3.95;;
53391;SDS011;41667;51.922;8.850;2023-08-30T09:58:52;7.38;;;3.78;;
53391;SDS011;41667;51.922;8.850;2023-08-30T10:01:19;6.93;;;4.30;;
53391;SDS011;41667;51.922;8.850;2023-08-30T10:03:45;4.72;;;4.20;;
53391;SDS011;41667;51.922;8.850;2023-08-30T10:06:10;6.25;;;3.40;;
53391;SDS011;41667;51.922;8.850;2023-08-30T10:08:35;5.82;;;3.63;;
53391;SDS011;41667;51.922;8.850;2023-08-30T10:11:04;9.20;;;3.50;;
53391;SDS011;41667;51.922;8.850;2023-08-30T10:13:29;8.15;;;3.30;;
53391;SDS011;41667;51.922;8.850;2023-08-30T10:15:57;5.20;;;3.70;;
53391;SDS011;41667;51.922;8.850;2023-08-30T10:18:23;7.20;;;3.95;;
53391;SDS011;41667;51.922;8.850;2023-08-30T10:20:51;6.35;;;3.53;;
53391;SDS011;41667;51.922;8.850;2023-08-30T10:23:19;6.65;;;3.72;;
53391;SDS011;41667;51.922;8.850;2023-08-30T10:25:44;7.20;;;4.28;;
53391;SDS011;41667;51.922;8.850;2023-08-30T10:28:10;5.70;;;4.22;;
53391;SDS011;41667;51.922;8.850;2023-08-30T10:30:37;4.22;;;3.35;;
53391;SDS011;41667;51.922;8.850;2023-08-30T10:33:02;4.88;;;3.22;;
53391;SDS011;41667;51.922;8.850;2023-08-30T10:35:28;3.78;;;3.08;;
53391;SDS011;41667;51.922;8.850;2023-08-30T10:37:57;4.60;;;3.80;;
53391;SDS011;41667;51.922;8.850;2023-08-30T10:40:23;3.10;;;2.70;;
53391;SDS011;41667;51.922;8.850;2023-08-30T10:42:58;3.90;;;3.60;;
53391;SDS011;41667;51.922;8.850;2023-08-30T10:45:23;3.95;;;3.55;;
53391;SDS011;41667;51.922;8.850;2023-08-30T10:47:53;6.20;;;4.10;;
53391;SDS011;41667;51.922;8.850;2023-08-30T10:50:19;3.60;;;3.30;;
53391;SDS011;41667;51.922;8.850;2023-08-30T10:52:55;4.32;;;3.05;;
53391;SDS011;41667;51.922;8.850;2023-08-30T10:55:21;4.78;;;3.22;;
53391;SDS011;41667;51.922;8.850;2023-08-30T10:57:57;24.67;;;3.78;;
53391;SDS011;41667;51.922;8.850;2023-08-30T11:00:22;7.82;;;3.65;;
53391;SDS011;41667;51.922;8.850;2023-08-30T11:02:48;4.53;;;3.38;;
53391;SDS011;41667;51.922;8.850;2023-08-30T11:05:15;4.75;;;3.22;;
53391;SDS011;41667;51.922;8.850;2023-08-30T11:07:40;3.72;;;3.28;;
53391;SDS011;41667;51.922;8.850;2023-08-30T11:10:05;7.00;;;3.25;;
53391;SDS011;41667;51.922;8.850;2023-08-30T11:12:34;6.60;;;3.85;;
53391;SDS011;41667;51.922;8.850;2023-08-30T11:14:59;6.38;;;4.18;;
53391;SDS011;41667;51.922;8.850;2023-08-30T11:17:26;5.57;;;3.30;;
53391;SDS011;41667;51.922;8.850;2023-08-30T11:19:51;5.85;;;2.95;;
53391;SDS011;41667;51.922;8.850;2023-08-30T11:22:21;3.33;;;2.70;;
53391;SDS011;41667;51.922;8.850;2023-08-30T11:24:47;4.93;;;2.90;;
53391;SDS011;41667;51.922;8.850;2023-08-30T11:27:12;3.53;;;2.97;;
53391;SDS011;41667;51.922;8.850;2023-08-30T11:29:40;4.40;;;2.83;;
53391;SDS011;41667;51.922;8.850;2023-08-30T11:32:07;3.58;;;2.75;;
53391;SDS011;41667;51.922;8.850;2023-08-30T11:34:32;4.20;;;3.47;;
53391;SDS011;41667;51.922;8.850;2023-08-30T11:36:57;4.37;;;3.33;;
53391;SDS011;41667;51.922;8.850;2023-08-30T11:39:23;4.25;;;3.28;;
53391;SDS011;41667;51.922;8.850;2023-08-30T11:41:49;3.38;;;2.72;;
53391;SDS011;41667;51.922;8.850;2023-08-30T11:44:15;5.85;;;3.08;;
53391;SDS011;41667;51.922;8.850;2023-08-30T11:46:41;8.48;;;3.03;;
53391;SDS011;41667;51.922;8.850;2023-08-30T11:49:06;5.37;;;2.93;;
53391;SDS011;41667;51.922;8.850;2023-08-30T11:51:32;4.45;;;3.80;;
53391;SDS011;41667;51.922;8.850;2023-08-30T11:53:58;6.43;;;3.38;;
53391;SDS011;41667;51.922;8.850;2023-08-30T11:56:23;3.40;;;2.78;;
53391;SDS011;41667;51.922;8.850;2023-08-30T11:58:49;4.72;;;2.88;;
53391;SDS011;41667;51.922;8.850;2023-08-30T12:01:14;5.97;;;3.22;;
53391;SDS011;41667;51.922;8.850;2023-08-30T12:03:39;5.65;;;2.80;;
53391;SDS011;41667;51.922;8.850;2023-08-30T12:06:09;3.40;;;2.72;;
53391;SDS011;41667;51.922;8.850;2023-08-30T12:08:34;5.20;;;2.75;;
53391;SDS011;41667;51.922;8.850;2023-08-30T12:10:59;3.03;;;2.45;;
53391;SDS011;41667;51.922;8.850;2023-08-30T12:13:25;3.83;;;2.23;;
53391;SDS011;41667;51.922;8.850;2023-08-30T12:15:51;4.78;;;2.50;;
53391;SDS011;41667;51.922;8.850;2023-08-30T12:18:17;3.58;;;2.58;;
53391;SDS011;41667;51.922;8.850;2023-08-30T12:21:02;3.35;;;2.15;;
53391;SDS011;41667;51.922;8.850;2023-08-30T12:23:28;3.53;;;2.33;;
53391;SDS011;41667;51.922;8.850;2023-08-30T12:26:00;2.58;;;2.38;;
53391;SDS011;41667;51.922;8.850;2023-08-30T12:30:50;4.27;;;2.17;;
53391;SDS011;41667;51.922;8.850;2023-08-30T12:33:16;3.93;;;2.03;;
53391;SDS011;41667;51.922;8.850;2023-08-30T12:35:41;3.28;;;2.10;;
53391;SDS011;41667;51.922;8.850;2023-08-30T12:38:06;2.73;;;2.30;;
53391;SDS011;41667;51.922;8.850;2023-08-30T12:40:31;1.85;;;1.73;;
53391;SDS011;41667;51.922;8.850;2023-08-30T12:42:57;2.00;;;1.80;;
53391;SDS011;41667;51.922;8.850;2023-08-30T12:45:22;2.75;;;2.08;;
53391;SDS011;41667;51.922;8.850;2023-08-30T12:47:47;5.23;;;1.97;;
53391;SDS011;41667;51.922;8.850;2023-08-30T12:50:12;5.30;;;2.03;;
53391;SDS011;41667;51.922;8.850;2023-08-30T12:52:38;9.57;;;2.27;;
53391;SDS011;41667;51.922;8.850;2023-08-30T12:55:03;3.00;;;2.33;;
53391;SDS011;41667;51.922;8.850;2023-08-30T12:57:28;4.57;;;2.40;;
53391;SDS011;41667;51.922;8.850;2023-08-30T12:59:54;3.13;;;2.28;;
53391;SDS011;41667;51.922;8.850;2023-08-30T13:02:19;4.95;;;2.28;;
53391;SDS011;41667;51.922;8.850;2023-08-30T13:04:44;3.37;;;2.33;;
53391;SDS011;41667;51.922;8.850;2023-08-30T13:07:09;2.17;;;2.00;;
53391;SDS011;41667;51.922;8.850;2023-08-30T13:09:34;3.17;;;2.27;;
53391;SDS011;41667;51.922;8.850;2023-08-30T13:11:59;4.10;;;2.63;;
53391;SDS011;41667;51.922;8.850;2023-08-30T13:14:24;5.28;;;2.55;;
53391;SDS011;41667;51.922;8.850;2023-08-30T13:16:50;3.00;;;2.33;;
53391;SDS011;41667;51.922;8.850;2023-08-30T13:19:15;3.13;;;2.53;;
53391;SDS011;41667;51.922;8.850;2023-08-30T13:21:40;2.90;;;2.42;;
53391;SDS011;41667;51.922;8.850;2023-08-30T13:24:07;4.53;;;2.70;;
53391;SDS011;41667;51.922;8.850;2023-08-30T13:26:32;3.05;;;2.67;;
53391;SDS011;41667;51.922;8.850;2023-08-30T13:28:58;3.38;;;2.85;;
53391;SDS011;41667;51.922;8.850;2023-08-30T13:31:23;3.15;;;2.80;;
53391;SDS011;41667;51.922;8.850;2023-08-30T13:33:49;4.72;;;4.03;;
53391;SDS011;41667;51.922;8.850;2023-08-30T13:36:14;6.22;;;3.03;;
53391;SDS011;41667;51.922;8.850;2023-08-30T13:38:41;3.05;;;2.75;;
53391;SDS011;41667;51.922;8.850;2023-08-30T13:41:06;4.32;;;3.13;;
53391;SDS011;41667;51.922;8.850;2023-08-30T13:43:32;5.50;;;3.63;;
53391;SDS011;41667;51.922;8.850;2023-08-30T13:45:58;4.65;;;4.03;;
53391;SDS011;41667;51.922;8.850;2023-08-30T13:48:23;4.55;;;3.50;;
53391;SDS011;41667;51.922;8.850;2023-08-30T13:50:49;5.63;;;4.20;;
53391;SDS011;41667;51.922;8.850;2023-08-30T13:53:14;5.13;;;4.18;;
53391;SDS011;41667;51.922;8.850;2023-08-30T13:55:40;5.63;;;3.33;;
53391;SDS011;41667;51.922;8.850;2023-08-30T13:58:05;6.00;;;3.90;;
53391;SDS011;41667;51.922;8.850;2023-08-30T14:00:30;4.82;;;3.90;;
53391;SDS011;41667;51.922;8.850;2023-08-30T14:02:56;5.68;;;4.20;;
53391;SDS011;41667;51.922;8.850;2023-08-30T14:05:21;5.80;;;4.10;;
53391;SDS011;41667;51.922;8.850;2023-08-30T14:07:46;8.23;;;4.63;;
53391;SDS011;41667;51.922;8.850;2023-08-30T14:10:11;7.30;;;5.47;;
53391;SDS011;41667;51.922;8.850;2023-08-30T14:12:41;7.68;;;6.00;;
53391;SDS011;41667;51.922;8.850;2023-08-30T14:15:06;8.35;;;5.93;;
53391;SDS011;41667;51.922;8.850;2023-08-30T14:17:32;10.88;;;6.47;;
53391;SDS011;41667;51.922;8.850;2023-08-30T14:19:57;10.57;;;6.55;;
53391;SDS011;41667;51.922;8.850;2023-08-30T14:22:22;9.73;;;7.22;;
53391;SDS011;41667;51.922;8.850;2023-08-30T14:24:48;13.35;;;8.55;;
53391;SDS011;41667;51.922;8.850;2023-08-30T14:27:13;11.90;;;7.90;;
53391;SDS011;41667;51.922;8.850;2023-08-30T14:29:38;9.87;;;7.30;;
53391;SDS011;41667;51.922;8.850;2023-08-30T14:32:03;10.48;;;8.15;;
53391;SDS011;41667;51.922;8.850;2023-08-30T14:34:28;12.23;;;8.57;;
53391;SDS011;41667;51.922;8.850;2023-08-30T14:36:54;8.73;;;7.67;;